Time;durP1;ratioP1;P1;durP2;ratioP2;P2;SDS_P1;SDS_P2;PMS_P1;PMS_P2;Temp;Humidity;BMP_temperature;BMP_pressure;BME280_temperature;BME280_humidity;BME280_pressure;Samples;Min_cycle;Max_cycle;Signal;HPM_P1;HPM_P2
2021/11/29 00:00:42;;;;;;;9.23;4.50;;;6.00;99.90;;;;;;5055829;28;20071;-72
2021/11/29 00:03:11;;;;;;;9.45;4.90;;;6.00;99.90;;;;;;5056146;28;20027;-72
2021/11/29 00:05:37;;;;;;;6.72;3.95;;;6.00;99.90;;;;;;5055765;28;20017;-74
2021/11/29 00:08:03;;;;;;;10.43;4.18;;;6.00;99.90;;;;;;5055482;28;20037;-73
2021/11/29 00:10:30;;;;;;;8.52;5.30;;;5.90;99.90;;;;;;5055710;28;20025;-73
2021/11/29 00:12:57;;;;;;;8.60;4.22;;;5.80;99.90;;;;;;5055366;28;20116;-72
2021/11/29 00:15:24;;;;;;;6.95;4.22;;;5.80;99.90;;;;;;5055621;28;20481;-73
2021/11/29 00:17:49;;;;;;;9.27;4.88;;;5.80;99.90;;;;;;5055005;28;20048;-74
2021/11/29 00:20:16;;;;;;;10.55;5.32;;;5.70;99.90;;;;;;5055274;28;20388;-72
2021/11/29 00:22:42;;;;;;;13.57;5.53;;;5.80;99.90;;;;;;5055518;28;20017;-73
2021/11/29 00:25:09;;;;;;;11.15;5.60;;;5.80;99.90;;;;;;5055238;28;20029;-73
2021/11/29 00:27:37;;;;;;;7.07;4.20;;;5.80;99.90;;;;;;5055166;28;20017;-73
2021/11/29 00:30:09;;;;;;;7.63;4.50;;;5.80;99.90;;;;;;5055100;28;20424;-72
2021/11/29 00:32:35;;;;;;;9.00;5.05;;;5.80;99.90;;;;;;5055349;28;20025;-72
2021/11/29 00:35:00;;;;;;;10.00;4.65;;;5.80;99.90;;;;;;5054972;28;20029;-73
2021/11/29 00:37:26;;;;;;;9.65;5.25;;;5.80;99.90;;;;;;5054953;28;20067;-73
2021/11/29 00:39:52;;;;;;;9.80;5.35;;;5.80;99.90;;;;;;5054825;28;20388;-72
2021/11/29 00:42:18;;;;;;;9.35;4.75;;;5.70;99.90;;;;;;5054766;28;20017;-73
2021/11/29 00:44:44;;;;;;;9.32;5.30;;;5.70;99.90;;;;;;5054744;28;20094;-73
2021/11/29 00:47:10;;;;;;;9.32;4.50;;;5.80;99.90;;;;;;5054733;28;20025;-71
2021/11/29 00:49:36;;;;;;;10.48;5.50;;;5.80;99.90;;;;;;5054944;28;20538;-73
2021/11/29 00:52:01;;;;;;;8.05;5.13;;;5.80;99.90;;;;;;5054920;28;20025;-72
2021/11/29 00:54:27;;;;;;;7.82;5.03;;;5.80;99.90;;;;;;5054849;28;20025;-72
2021/11/29 00:56:53;;;;;;;9.35;4.75;;;5.80;99.90;;;;;;5054522;28;20029;-73
2021/11/29 00:59:18;;;;;;;8.68;5.13;;;5.80;99.90;;;;;;5053360;28;20036;-73
2021/11/29 01:01:44;;;;;;;10.32;5.22;;;5.80;99.90;;;;;;5036531;28;20432;-74
2021/11/29 01:04:11;;;;;;;8.77;4.82;;;5.80;99.90;;;;;;5054734;28;20523;-73
2021/11/29 01:06:37;;;;;;;9.98;5.30;;;5.80;99.90;;;;;;5054367;28;20028;-74
2021/11/29 01:09:03;;;;;;;9.25;5.28;;;5.80;99.90;;;;;;5054617;28;20028;-73
2021/11/29 01:11:29;;;;;;;12.23;5.13;;;5.70;99.90;;;;;;5054254;28;20427;-73
2021/11/29 01:13:55;;;;;;;8.35;4.95;;;5.70;99.90;;;;;;5054195;28;20103;-72
2021/11/29 01:16:21;;;;;;;8.80;5.00;;;5.70;99.90;;;;;;5054178;28;20024;-71
2021/11/29 01:18:47;;;;;;;9.32;5.32;;;5.60;99.90;;;;;;5053684;28;20045;-72
2021/11/29 01:21:13;;;;;;;8.52;5.35;;;5.60;99.90;;;;;;5054105;28;20452;-72
2021/11/29 01:23:39;;;;;;;10.15;5.75;;;5.50;99.90;;;;;;5054558;28;20021;-72
2021/11/29 01:26:04;;;;;;;8.85;5.10;;;5.50;99.90;;;;;;5054027;28;20024;-71
2021/11/29 01:28:31;;;;;;;7.95;5.15;;;5.50;99.90;;;;;;5053944;28;20032;-73
2021/11/29 01:30:56;;;;;;;9.38;5.13;;;5.50;99.90;;;;;;5053909;28;20021;-72
2021/11/29 01:33:22;;;;;;;9.15;4.80;;;5.40;99.90;;;;;;5053931;28;20443;-72
2021/11/29 01:35:48;;;;;;;6.88;4.30;;;5.40;99.90;;;;;;5054109;28;20025;-72
2021/11/29 01:38:13;;;;;;;10.35;5.90;;;5.40;99.90;;;;;;5053764;28;20484;-72
2021/11/29 01:40:39;;;;;;;8.00;5.18;;;5.30;99.90;;;;;;5053994;28;20385;-74
2021/11/29 01:43:09;;;;;;;9.35;5.63;;;5.40;99.90;;;;;;5053660;28;20098;-72
2021/11/29 01:45:41;;;;;;;8.63;5.75;;;5.40;99.90;;;;;;5053653;28;20032;-73
2021/11/29 01:48:09;;;;;;;9.40;6.10;;;5.50;99.90;;;;;;5054087;28;20044;-72
2021/11/29 01:50:36;;;;;;;8.90;4.95;;;5.50;99.90;;;;;;5053855;28;20549;-72
2021/11/29 01:53:01;;;;;;;8.27;5.13;;;5.40;99.90;;;;;;5053531;28;20531;-74
2021/11/29 01:55:27;;;;;;;8.90;4.57;;;5.40;99.90;;;;;;5053483;28;20021;-73
2021/11/29 01:57:53;;;;;;;7.57;4.97;;;5.40;99.90;;;;;;5035472;28;20430;-72
2021/11/29 02:00:26;;;;;;;7.07;4.38;;;5.40;99.90;;;;;;5053400;28;20055;-72
2021/11/29 02:02:53;;;;;;;10.52;4.93;;;5.40;99.90;;;;;;5054213;28;20023;-73
2021/11/29 02:05:21;;;;;;;9.65;4.93;;;5.40;99.90;;;;;;5053650;28;20071;-72
2021/11/29 02:07:47;;;;;;;7.57;4.20;;;5.50;99.90;;;;;;5053591;28;20496;-73
2021/11/29 02:10:14;;;;;;;5.78;3.75;;;5.50;99.90;;;;;;5052985;28;20028;-73
2021/11/29 02:12:40;;;;;;;9.25;4.55;;;5.50;99.90;;;;;;5053292;28;20062;-71
2021/11/29 02:15:06;;;;;;;6.63;3.60;;;5.60;99.90;;;;;;5053535;28;20036;-73
2021/11/29 02:17:33;;;;;;;6.72;3.92;;;5.60;99.90;;;;;;5053107;28;20037;-71
2021/11/29 02:20:00;;;;;;;5.68;3.55;;;5.60;99.90;;;;;;5053011;28;20045;-73
2021/11/29 02:22:26;;;;;;;6.15;3.60;;;5.60;99.90;;;;;;5053440;28;20079;-73
2021/11/29 02:24:52;;;;;;;7.82;3.47;;;5.60;99.90;;;;;;5053116;28;20017;-72
2021/11/29 02:27:18;;;;;;;8.38;3.60;;;5.60;99.90;;;;;;5053097;28;20021;-74
2021/11/29 02:29:44;;;;;;;8.32;3.88;;;5.60;99.90;;;;;;5053358;28;20029;-72
2021/11/29 02:32:10;;;;;;;6.90;4.00;;;5.60;99.90;;;;;;5053011;28;20090;-74
2021/11/29 02:34:35;;;;;;;7.65;4.07;;;5.70;99.90;;;;;;5053337;28;20053;-75
2021/11/29 02:37:05;;;;;;;7.47;4.05;;;5.70;99.90;;;;;;5052989;28;20385;-72
2021/11/29 02:39:31;;;;;;;6.70;4.65;;;5.70;99.90;;;;;;5053003;28;20036;-74
2021/11/29 02:41:59;;;;;;;7.53;4.15;;;5.60;99.90;;;;;;5053203;28;20037;-73
2021/11/29 02:44:26;;;;;;;8.38;4.15;;;5.60;99.90;;;;;;5052990;28;20018;-72
2021/11/29 02:46:51;;;;;;;7.18;3.83;;;5.70;99.90;;;;;;5053189;28;20028;-72
2021/11/29 02:49:18;;;;;;;7.50;4.00;;;5.60;99.90;;;;;;5052915;28;20017;-73
2021/11/29 02:51:50;;;;;;;7.78;3.67;;;5.70;99.90;;;;;;5052856;28;20108;-72
2021/11/29 02:54:19;;;;;;;6.68;4.10;;;5.70;99.90;;;;;;5052871;28;20152;-72
2021/11/29 02:56:48;;;;;;;6.90;4.65;;;5.60;99.90;;;;;;5052821;28;20052;-74
2021/11/29 02:59:16;;;;;;;5.72;3.85;;;5.50;99.90;;;;;;5053261;28;20035;-74
2021/11/29 03:01:43;;;;;;;6.47;4.20;;;5.60;99.90;;;;;;5052845;28;20059;-71
2021/11/29 03:04:09;;;;;;;5.80;3.88;;;5.60;99.90;;;;;;5052765;28;20025;-74
2021/11/29 03:06:35;;;;;;;7.05;4.50;;;5.50;99.90;;;;;;5052750;28;20035;-73
2021/11/29 03:09:04;;;;;;;6.82;4.10;;;5.60;99.90;;;;;;5052722;28;20025;-73
2021/11/29 03:11:30;;;;;;;7.65;4.40;;;5.60;99.90;;;;;;5053213;28;20021;-73
2021/11/29 03:13:58;;;;;;;6.35;3.88;;;5.60;99.90;;;;;;5052666;28;20481;-73
2021/11/29 03:16:24;;;;;;;7.40;4.72;;;5.60;99.90;;;;;;5052632;28;20055;-72
2021/11/29 03:18:50;;;;;;;6.63;4.32;;;5.60;99.90;;;;;;5052158;28;20052;-73
2021/11/29 03:21:19;;;;;;;6.55;4.07;;;5.50;99.90;;;;;;5053546;28;20025;-73
2021/11/29 03:23:47;;;;;;;6.40;4.00;;;5.50;99.90;;;;;;5056309;28;20538;-71
2021/11/29 03:26:17;;;;;;;6.63;4.35;;;5.50;99.90;;;;;;5056241;28;20018;-72
2021/11/29 03:28:45;;;;;;;7.88;4.50;;;5.50;99.90;;;;;;5038119;28;20098;-73
2021/11/29 03:31:12;;;;;;;6.32;3.70;;;5.50;99.90;;;;;;5056077;28;20025;-73
2021/11/29 03:33:39;;;;;;;7.03;4.60;;;5.50;99.90;;;;;;5056387;28;20032;-72
2021/11/29 03:36:05;;;;;;;6.85;4.18;;;5.50;99.90;;;;;;5056368;28;20027;-75
2021/11/29 03:38:31;;;;;;;7.55;4.13;;;5.50;99.90;;;;;;5055999;28;20143;-71
2021/11/29 03:40:58;;;;;;;7.82;4.30;;;5.50;99.90;;;;;;5055966;28;20017;-72
2021/11/29 03:43:24;;;;;;;6.00;4.20;;;5.40;99.90;;;;;;5055857;28;20061;-74
2021/11/29 03:45:50;;;;;;;7.53;4.05;;;5.40;99.90;;;;;;5056179;28;20041;-74
2021/11/29 03:48:16;;;;;;;6.68;4.55;;;5.40;99.90;;;;;;5055879;28;20362;-72
2021/11/29 03:50:42;;;;;;;9.60;4.85;;;5.30;99.90;;;;;;5055830;28;20021;-72
2021/11/29 03:53:08;;;;;;;8.10;4.57;;;5.20;99.90;;;;;;5056080;28;20032;-74
2021/11/29 03:55:34;;;;;;;8.57;4.20;;;5.20;99.90;;;;;;5055737;28;20428;-73
2021/11/29 03:57:59;;;;;;;7.63;4.13;;;5.20;99.90;;;;;;5055642;28;20035;-74
2021/11/29 04:00:25;;;;;;;6.25;3.83;;;5.10;99.90;;;;;;5055635;28;20021;-72
2021/11/29 04:02:51;;;;;;;7.95;4.55;;;5.00;99.90;;;;;;5055901;28;20067;-72
2021/11/29 04:05:17;;;;;;;6.32;3.63;;;4.90;99.90;;;;;;5055566;28;20076;-73
2021/11/29 04:07:43;;;;;;;7.93;4.00;;;4.90;99.90;;;;;;5055476;28;20504;-72
2021/11/29 04:10:10;;;;;;;7.55;3.95;;;4.90;99.90;;;;;;5055479;28;20108;-72
2021/11/29 04:12:36;;;;;;;8.93;4.20;;;5.00;99.90;;;;;;5055711;28;20025;-74
2021/11/29 04:15:02;;;;;;;6.63;4.18;;;5.10;99.90;;;;;;5055409;28;20389;-74
2021/11/29 04:17:28;;;;;;;6.78;4.20;;;5.20;99.90;;;;;;5055036;28;20049;-72
2021/11/29 04:19:54;;;;;;;8.43;4.20;;;5.20;99.90;;;;;;5055517;28;20032;-72
2021/11/29 04:22:20;;;;;;;6.93;3.67;;;5.30;99.90;;;;;;5055222;28;20496;-73
2021/11/29 04:24:47;;;;;;;6.50;4.03;;;5.40;99.90;;;;;;5055190;28;20074;-72
2021/11/29 04:27:13;;;;;;;8.27;4.05;;;5.30;99.90;;;;;;5055158;28;20028;-72
2021/11/29 04:29:42;;;;;;;5.38;3.22;;;5.30;99.90;;;;;;5055112;28;20435;-72
2021/11/29 04:32:09;;;;;;;9.48;3.70;;;5.30;99.90;;;;;;5054825;28;20023;-74
2021/11/29 04:34:35;;;;;;;6.60;3.05;;;5.40;99.90;;;;;;5055269;28;20017;-73
2021/11/29 04:37:02;;;;;;;5.25;3.17;;;5.40;99.90;;;;;;5055014;28;20032;-73
2021/11/29 04:39:32;;;;;;;6.07;3.38;;;5.20;99.90;;;;;;5055160;28;20104;-74
2021/11/29 04:41:59;;;;;;;5.30;3.13;;;5.30;99.90;;;;;;5054783;28;20560;-73
2021/11/29 04:44:24;;;;;;;8.48;4.47;;;5.30;99.90;;;;;;5054852;28;20104;-72
2021/11/29 04:46:50;;;;;;;7.07;4.28;;;5.00;99.90;;;;;;5055341;28;20052;-74
2021/11/29 04:49:16;;;;;;;6.43;3.65;;;5.20;99.90;;;;;;5054746;28;20096;-73
2021/11/29 04:51:42;;;;;;;7.47;3.53;;;5.30;99.90;;;;;;5054779;28;20029;-73
2021/11/29 04:54:09;;;;;;;6.03;3.42;;;5.40;99.90;;;;;;5054653;28;20393;-74
2021/11/29 04:56:35;;;;;;;6.40;3.05;;;5.40;99.90;;;;;;5054590;28;20029;-72
2021/11/29 04:59:01;;;;;;;5.93;3.50;;;5.40;99.90;;;;;;5054512;28;20424;-73
2021/11/29 05:01:27;;;;;;;7.03;3.38;;;5.40;99.90;;;;;;5054456;28;20017;-72
2021/11/29 05:03:52;;;;;;;8.82;3.58;;;5.40;99.90;;;;;;5054485;28;20024;-72
2021/11/29 05:06:19;;;;;;;6.25;3.08;;;5.30;99.90;;;;;;5054422;28;20013;-72
2021/11/29 05:08:45;;;;;;;8.90;3.22;;;5.30;99.90;;;;;;5054374;28;20029;-72
2021/11/29 05:11:11;;;;;;;7.50;2.72;;;5.30;99.90;;;;;;5054341;28;20040;-73
2021/11/29 05:13:37;;;;;;;4.57;2.40;;;5.40;99.90;;;;;;5054285;28;20043;-74
2021/11/29 05:16:02;;;;;;;4.10;2.65;;;5.30;99.90;;;;;;5054195;28;20025;-73
2021/11/29 05:18:28;;;;;;;6.88;2.58;;;5.30;99.90;;;;;;5053988;28;20041;-72
2021/11/29 05:20:54;;;;;;;5.25;2.63;;;5.30;99.90;;;;;;5054097;28;20032;-74
2021/11/29 05:23:20;;;;;;;7.72;2.83;;;5.30;99.90;;;;;;5054387;28;20021;-71
2021/11/29 05:25:46;;;;;;;7.13;2.70;;;5.30;99.90;;;;;;5054368;28;20028;-73
2021/11/29 05:28:12;;;;;;;7.38;2.85;;;5.30;99.90;;;;;;5054007;28;20025;-74
2021/11/29 05:30:37;;;;;;;6.13;2.50;;;5.30;99.90;;;;;;5053865;28;20389;-73
2021/11/29 05:33:03;;;;;;;6.82;2.60;;;5.20;99.90;;;;;;5053909;28;20036;-73
2021/11/29 05:35:29;;;;;;;6.78;2.78;;;5.30;99.90;;;;;;5053874;28;20026;-72
2021/11/29 05:37:55;;;;;;;5.68;2.55;;;5.20;99.90;;;;;;5053725;28;20078;-73
2021/11/29 05:40:21;;;;;;;10.15;2.63;;;5.20;99.90;;;;;;5054070;28;20032;-73
2021/11/29 05:42:47;;;;;;;4.43;2.30;;;5.20;99.90;;;;;;5053642;28;20013;-72
2021/11/29 05:45:13;;;;;;;6.38;2.78;;;5.20;99.90;;;;;;5053097;28;20110;-73
2021/11/29 05:47:41;;;;;;;5.18;3.17;;;5.20;99.90;;;;;;5053656;28;20024;-72
2021/11/29 05:50:08;;;;;;;3.47;1.98;;;5.20;99.90;;;;;;5053910;28;20036;-74
2021/11/29 05:52:34;;;;;;;6.55;2.50;;;5.20;99.90;;;;;;5053496;28;20029;-73
2021/11/29 05:55:00;;;;;;;4.72;2.45;;;5.20;99.90;;;;;;5053852;28;20385;-72
2021/11/29 05:57:26;;;;;;;6.20;2.20;;;5.20;99.90;;;;;;5053821;28;20023;-75
2021/11/29 05:59:52;;;;;;;4.82;2.58;;;5.20;99.90;;;;;;5053436;28;20029;-73
2021/11/29 06:02:17;;;;;;;5.63;2.83;;;5.20;99.90;;;;;;5053709;28;20063;-73
2021/11/29 06:04:43;;;;;;;6.65;2.75;;;5.20;99.90;;;;;;5053684;28;20396;-74
2021/11/29 06:07:09;;;;;;;6.15;2.60;;;5.10;99.90;;;;;;5053926;28;20020;-73
2021/11/29 06:09:34;;;;;;;5.85;2.90;;;5.10;99.90;;;;;;5053641;28;20035;-71
2021/11/29 06:12:00;;;;;;;6.25;3.03;;;5.10;99.90;;;;;;5053589;28;20056;-73
2021/11/29 06:14:26;;;;;;;11.48;3.35;;;5.00;99.90;;;;;;5053605;28;20028;-72
2021/11/29 06:16:55;;;;;;;7.22;3.25;;;4.90;99.90;;;;;;5053226;28;20390;-71
2021/11/29 06:19:21;;;;;;;5.45;3.08;;;4.80;99.90;;;;;;5053224;28;20036;-71
2021/11/29 06:21:47;;;;;;;4.03;3.15;;;4.70;99.90;;;;;;5053149;28;20025;-73
2021/11/29 06:24:13;;;;;;;6.03;3.03;;;4.70;99.90;;;;;;5053444;28;20381;-75
2021/11/29 06:26:39;;;;;;;5.30;3.28;;;4.60;99.90;;;;;;5053666;28;20051;-72
2021/11/29 06:29:05;;;;;;;8.93;3.45;;;4.50;99.90;;;;;;5053362;28;20021;-73
2021/11/29 06:31:31;;;;;;;5.97;3.50;;;4.60;99.90;;;;;;5053077;28;20036;-74
2021/11/29 06:33:57;;;;;;;6.75;3.22;;;4.70;99.90;;;;;;5053036;28;20021;-73
2021/11/29 06:36:28;;;;;;;6.43;2.95;;;4.60;99.90;;;;;;5053010;28;20095;-71
2021/11/29 06:38:56;;;;;;;5.75;2.97;;;4.70;99.90;;;;;;5053155;28;20110;-73
2021/11/29 06:41:23;;;;;;;6.78;3.22;;;4.80;99.90;;;;;;5052994;28;20014;-74
2021/11/29 06:43:50;;;;;;;6.78;3.60;;;4.80;99.90;;;;;;5052931;28;20032;-71
2021/11/29 06:46:16;;;;;;;8.40;5.10;;;4.90;99.90;;;;;;5052738;28;20437;-73
2021/11/29 06:48:42;;;;;;;6.30;3.78;;;4.90;99.90;;;;;;5052932;28;20027;-72
2021/11/29 06:51:09;;;;;;;7.22;3.60;;;4.90;99.90;;;;;;5052904;28;20021;-74
2021/11/29 06:53:35;;;;;;;4.25;3.05;;;4.90;99.90;;;;;;5052862;28;20519;-72
2021/11/29 06:56:01;;;;;;;8.32;3.70;;;4.80;99.90;;;;;;5054853;28;20032;-74
2021/11/29 06:58:28;;;;;;;7.97;3.20;;;4.90;99.90;;;;;;5056765;28;20028;-72
2021/11/29 07:00:55;;;;;;;7.70;3.80;;;5.00;99.90;;;;;;5057011;28;20082;-74
2021/11/29 07:03:21;;;;;;;7.07;3.50;;;5.00;99.90;;;;;;5057315;28;20167;-72
2021/11/29 07:05:49;;;;;;;9.95;3.50;;;5.00;99.90;;;;;;5056720;28;20436;-73
2021/11/29 07:08:15;;;;;;;6.20;4.00;;;4.90;99.90;;;;;;5056895;28;20376;-74
2021/11/29 07:10:41;;;;;;;6.55;3.65;;;4.90;99.90;;;;;;5056593;28;20104;-72
2021/11/29 07:13:11;;;;;;;4.85;3.22;;;4.80;99.90;;;;;;5056877;28;20074;-74
2021/11/29 07:15:37;;;;;;;6.60;3.97;;;4.50;99.90;;;;;;5056509;28;20024;-72
2021/11/29 07:18:03;;;;;;;8.38;5.20;;;4.30;99.90;;;;;;5056278;28;20484;-72
2021/11/29 07:20:30;;;;;;;9.55;5.40;;;4.20;99.90;;;;;;5056178;28;20059;-73
2021/11/29 07:22:56;;;;;;;8.35;4.95;;;4.30;99.90;;;;;;5056386;28;20100;-71
2021/11/29 07:25:22;;;;;;;8.75;5.28;;;4.30;99.90;;;;;;5056382;28;20020;-71
2021/11/29 07:27:48;;;;;;;11.25;6.15;;;4.20;99.90;;;;;;5056285;28;20063;-71
2021/11/29 07:30:17;;;;;;;17.70;6.00;;;4.20;99.90;;;;;;5056188;28;20056;-73
2021/11/29 07:32:43;;;;;;;11.45;5.72;;;4.20;99.90;;;;;;5056244;28;20100;-71
2021/11/29 07:35:10;;;;;;;12.45;5.53;;;4.30;99.90;;;;;;5056167;28;20057;-74
2021/11/29 07:37:36;;;;;;;13.25;5.38;;;4.20;99.90;;;;;;5056394;28;20036;-72
2021/11/29 07:40:04;;;;;;;10.60;5.57;;;4.20;99.90;;;;;;5056242;28;20405;-74
2021/11/29 07:42:30;;;;;;;11.65;6.72;;;4.10;99.90;;;;;;5056078;28;20028;-73
2021/11/29 07:44:56;;;;;;;12.45;7.10;;;4.00;99.90;;;;;;5056260;28;20469;-73
2021/11/29 07:47:25;;;;;;;9.70;6.25;;;3.90;99.90;;;;;;5055913;28;20028;-72
2021/11/29 07:49:52;;;;;;;8.05;5.10;;;3.80;99.90;;;;;;5055921;28;20025;-71
2021/11/29 07:52:18;;;;;;;9.82;5.18;;;3.90;99.90;;;;;;5055912;28;20025;-74
2021/11/29 07:54:44;;;;;;;8.57;5.68;;;4.10;99.90;;;;;;5055752;28;20029;-73
2021/11/29 07:57:13;;;;;;;9.00;5.40;;;4.40;99.90;;;;;;5056295;28;20028;-71
2021/11/29 07:59:39;;;;;;;9.10;5.70;;;4.50;99.90;;;;;;5054370;28;20426;-74
2021/11/29 08:02:05;;;;;;;8.18;5.43;;;4.60;99.90;;;;;;5054642;28;20423;-76
2021/11/29 08:04:30;;;;;;;8.30;4.97;;;4.70;99.90;;;;;;5051573;28;20096;-76
2021/11/29 08:06:56;;;;;;;12.32;5.03;;;4.70;99.90;;;;;;5054753;28;20108;-76
2021/11/29 08:09:22;;;;;;;7.80;5.25;;;4.80;99.90;;;;;;5055789;28;20473;-79
2021/11/29 08:11:48;;;;;;;9.82;5.53;;;4.90;99.90;;;;;;5052557;28;20489;-79
2021/11/29 08:14:14;;;;;;;8.82;5.55;;;4.90;99.90;;;;;;5055162;28;20078;-82
2021/11/29 08:16:39;;;;;;;13.50;10.60;;;4.90;99.90;;;;;;5054781;28;20070;-74
2021/11/29 08:19:05;;;;;;;30.73;26.23;;;4.90;99.90;;;;;;5054420;28;20047;-76
2021/11/29 08:21:31;;;;;;;33.17;26.35;;;4.90;99.90;;;;;;5054774;28;20079;-77
2021/11/29 08:23:56;;;;;;;31.95;21.20;;;4.90;99.90;;;;;;5054483;28;20024;-76
2021/11/29 08:26:22;;;;;;;28.63;21.25;;;4.90;99.90;;;;;;5054881;28;20090;-76
2021/11/29 08:28:48;;;;;;;31.02;21.50;;;4.80;99.90;;;;;;5037513;28;20477;-72
2021/11/29 08:31:14;;;;;;;29.90;21.10;;;4.90;99.90;;;;;;5054822;28;20483;-77
2021/11/29 08:33:40;;;;;;;53.80;41.67;;;4.90;99.90;;;;;;5054770;28;20017;-77
2021/11/29 08:36:06;;;;;;;83.28;53.60;;;4.90;99.90;;;;;;5055099;28;20028;-77
2021/11/29 08:38:34;;;;;;;60.88;38.95;;;4.80;99.90;;;;;;5054756;28;20369;-75
2021/11/29 08:41:00;;;;;;;86.35;51.95;;;4.90;99.90;;;;;;5048973;28;20075;-77
2021/11/29 08:43:26;;;;;;;53.05;32.33;;;5.00;99.90;;;;;;5054425;28;20127;-74
2021/11/29 08:45:53;;;;;;;35.58;23.13;;;5.00;99.90;;;;;;5054912;28;20052;-77
2021/11/29 08:48:20;;;;;;;36.83;24.02;;;5.00;99.90;;;;;;5036834;28;20036;-77
2021/11/29 08:50:49;;;;;;;24.65;17.00;;;5.10;99.90;;;;;;5054793;28;20021;-80
2021/11/29 08:53:18;;;;;;;24.85;18.83;;;5.10;99.90;;;;;;5054462;28;20066;-80
2021/11/29 08:55:45;;;;;;;38.50;27.10;;;5.20;99.90;;;;;;5054297;28;20515;-76
2021/11/29 08:58:11;;;;;;;21.75;14.70;;;5.20;99.90;;;;;;5054992;28;20445;-76
2021/11/29 09:00:40;;;;;;;26.80;19.88;;;5.30;99.90;;;;;;5054627;28;20021;-76
2021/11/29 09:03:08;;;;;;;27.05;18.15;;;5.40;99.90;;;;;;5054109;28;20017;-82
2021/11/29 09:05:39;;;;;;;17.75;12.93;;;5.40;99.90;;;;;;5054600;28;20110;-82
2021/11/29 09:08:05;;;;;;;18.52;13.75;;;5.50;99.90;;;;;;5054200;28;20029;-81
2021/11/29 09:10:31;;;;;;;21.38;13.27;;;5.60;99.90;;;;;;5037244;28;20108;-78
2021/11/29 09:12:57;;;;;;;13.50;9.85;;;5.70;99.90;;;;;;5054134;28;20537;-75
2021/11/29 09:15:23;;;;;;;17.27;11.48;;;5.80;99.90;;;;;;5036019;28;20033;-76
2021/11/29 09:17:49;;;;;;;15.48;11.57;;;5.80;99.90;;;;;;5053099;28;20435;-77
2021/11/29 09:20:18;;;;;;;16.30;10.60;;;5.90;99.90;;;;;;5052557;28;20032;-78
2021/11/29 09:22:46;;;;;;;18.35;12.73;;;5.90;99.90;;;;;;5054236;28;20473;-82
2021/11/29 09:25:12;;;;;;;17.10;11.55;;;6.00;99.90;;;;;;5054119;28;20018;-79
2021/11/29 09:27:38;;;;;;;14.95;11.52;;;6.00;99.90;;;;;;5054050;28;20017;-79
2021/11/29 09:30:09;;;;;;;14.30;11.15;;;5.90;99.90;;;;;;5054318;28;20033;-78
2021/11/29 09:32:37;;;;;;;14.65;10.35;;;6.00;99.90;;;;;;5054695;28;20075;-81
2021/11/29 09:35:06;;;;;;;18.27;14.05;;;6.00;99.90;;;;;;5044865;28;20032;-76
2021/11/29 09:37:32;;;;;;;21.65;16.23;;;6.10;99.90;;;;;;5050765;28;20409;-80
2021/11/29 09:39:57;;;;;;;16.27;13.57;;;6.10;99.90;;;;;;5035927;28;20025;-79
2021/11/29 09:42:23;;;;;;;11.88;7.80;;;6.00;99.90;;;;;;5049500;28;20162;-76
2021/11/29 09:44:53;;;;;;;11.50;7.10;;;5.90;99.90;;;;;;5045482;28;20018;-73
2021/11/29 09:47:20;;;;;;;9.40;6.10;;;6.10;99.90;;;;;;5031586;28;20028;-77
2021/11/29 09:49:46;;;;;;;12.20;6.80;;;6.20;99.90;;;;;;5041320;28;20026;-77
2021/11/29 09:52:11;;;;;;;13.40;10.32;;;6.30;99.90;;;;;;5050775;28;20087;-80
2021/11/29 09:54:40;;;;;;;17.17;12.70;;;6.30;99.90;;;;;;5047188;28;20023;-78
2021/11/29 09:57:06;;;;;;;20.92;13.80;;;6.30;99.90;;;;;;5046902;28;20533;-77
2021/11/29 09:59:31;;;;;;;18.10;12.85;;;6.30;99.90;;;;;;5044400;28;20101;-79
2021/11/29 10:01:57;;;;;;;13.02;8.23;;;6.40;99.90;;;;;;5049800;28;20424;-77
2021/11/29 10:04:24;;;;;;;9.98;7.25;;;6.40;99.90;;;;;;5045493;28;20029;-80
2021/11/29 10:06:55;;;;;;;10.00;7.07;;;6.60;99.90;;;;;;5042746;28;20020;-78
2021/11/29 10:09:30;;;;;;;10.45;6.30;;;6.60;99.90;;;;;;5031598;28;20431;-77
2021/11/29 10:12:01;;;;;;;9.57;6.22;;;6.70;99.90;;;;;;5044666;28;20032;-73
2021/11/29 10:14:26;;;;;;;10.52;6.85;;;6.70;99.90;;;;;;5045416;28;20083;-74
2021/11/29 10:17:02;;;;;;;17.75;9.68;;;6.80;99.90;;;;;;5043663;28;20021;-74
2021/11/29 10:19:37;;;;;;;13.57;8.93;;;6.90;99.90;;;;;;5052516;28;20052;-71
2021/11/29 10:22:20;;;;;;;11.27;7.10;;;6.80;99.90;;;;;;5053369;28;20100;-74
2021/11/29 10:24:48;;;;;;;11.32;6.68;;;6.90;99.90;;;;;;5053631;28;20103;-75
2021/11/29 10:27:15;;;;;;;11.25;7.03;;;6.90;99.90;;;;;;5053479;28;20021;-74
2021/11/29 10:29:52;;;;;;;9.40;5.53;;;6.80;99.90;;;;;;5053046;28;20029;-73
2021/11/29 10:32:40;;;;;;;10.68;6.68;;;6.80;99.90;;;;;;5053106;28;20032;-74
2021/11/29 10:35:08;;;;;;;12.10;8.32;;;6.80;99.90;;;;;;5052690;28;20029;-80
2021/11/29 10:37:37;;;;;;;12.18;6.70;;;6.80;99.90;;;;;;5053589;28;20045;-79
2021/11/29 10:40:13;;;;;;;14.00;8.95;;;6.70;99.90;;;;;;5035140;28;20036;-81
2021/11/29 10:42:39;;;;;;;10.10;6.55;;;6.70;99.90;;;;;;5034980;28;20017;-82
2021/11/29 10:45:08;;;;;;;11.52;4.90;;;6.70;99.90;;;;;;5053525;28;20048;-81
2021/11/29 10:47:35;;;;;;;12.68;5.82;;;6.80;99.90;;;;;;5048905;28;20022;-83
2021/11/29 10:50:04;;;;;;;7.30;4.80;;;6.80;99.90;;;;;;5052590;28;20028;-77
2021/11/29 10:52:33;;;;;;;8.33;5.30;;;6.80;99.90;;;;;;5053115;28;20059;-76
2021/11/29 10:54:59;;;;;;;9.60;5.95;;;6.80;99.90;;;;;;5052984;28;20385;-78
2021/11/29 10:57:27;;;;;;;9.27;5.45;;;6.80;99.90;;;;;;5052755;28;20029;-78
2021/11/29 10:59:54;;;;;;;12.43;7.38;;;6.80;99.90;;;;;;5052748;28;20443;-79
2021/11/29 11:02:25;;;;;;;9.95;6.53;;;6.90;99.90;;;;;;5052698;28;20040;-80
2021/11/29 11:05:08;;;;;;;8.82;5.50;;;6.80;99.90;;;;;;5052955;28;20096;-79
2021/11/29 11:07:35;;;;;;;9.70;5.55;;;6.90;99.90;;;;;;5052912;28;20025;-78
2021/11/29 11:10:03;;;;;;;9.15;5.70;;;6.90;99.90;;;;;;5052612;28;20025;-73
2021/11/29 11:12:33;;;;;;;7.32;4.43;;;6.90;99.90;;;;;;5050612;28;20104;-75
2021/11/29 11:15:04;;;;;;;6.00;4.40;;;7.00;99.90;;;;;;5052262;28;20535;-73
2021/11/29 11:17:31;;;;;;;8.00;3.70;;;7.10;99.90;;;;;;5048553;28;20069;-75
2021/11/29 11:20:01;;;;;;;5.55;3.70;;;7.10;99.90;;;;;;5046359;28;20443;-73
2021/11/29 11:22:33;;;;;;;6.27;3.67;;;7.20;99.90;;;;;;5043354;28;20470;-79
2021/11/29 11:25:00;;;;;;;9.82;5.18;;;7.30;99.90;;;;;;5050684;28;20329;-80
2021/11/29 11:27:31;;;;;;;7.72;4.88;;;7.30;99.90;;;;;;5043919;28;20041;-82
2021/11/29 11:30:06;;;;;;;7.63;4.20;;;7.40;99.90;;;;;;5050683;28;20036;-79
2021/11/29 11:32:33;;;;;;;7.85;3.47;;;7.40;99.90;;;;;;5041813;28;20477;-85
2021/11/29 11:35:18;;;;;;;6.20;3.72;;;7.40;99.90;;;;;;5052171;28;20400;-82
2021/11/29 11:37:47;;;;;;;7.05;3.70;;;7.40;99.90;;;;;;5052135;28;20500;-72
2021/11/29 11:40:17;;;;;;;8.27;4.03;;;7.40;99.90;;;;;;5051783;28;20468;-72
2021/11/29 11:42:44;;;;;;;7.32;4.25;;;7.40;99.90;;;;;;5053185;28;20259;-72
2021/11/29 11:45:15;;;;;;;6.68;4.28;;;7.40;99.90;;;;;;5055104;28;20056;-72
2021/11/29 11:47:43;;;;;;;7.25;3.83;;;7.50;99.90;;;;;;5055410;28;20028;-71
2021/11/29 11:50:11;;;;;;;8.80;4.82;;;7.50;99.90;;;;;;5055479;28;20116;-72
2021/11/29 11:52:37;;;;;;;8.52;4.80;;;7.60;99.90;;;;;;5055405;28;20036;-71
2021/11/29 11:55:05;;;;;;;7.47;4.07;;;7.70;99.90;;;;;;5055350;28;20385;-71
2021/11/29 11:57:32;;;;;;;5.78;3.42;;;7.80;99.90;;;;;;5055780;28;20029;-71
2021/11/29 12:00:19;;;;;;;7.07;4.32;;;7.90;99.90;;;;;;5055615;28;20021;-71
2021/11/29 12:02:50;;;;;;;6.25;3.80;;;7.90;99.90;;;;;;5056011;28;20017;-71
2021/11/29 12:05:18;;;;;;;7.65;3.72;;;8.00;99.90;;;;;;5055675;28;20036;-71
2021/11/29 12:07:46;;;;;;;6.38;3.75;;;8.00;99.90;;;;;;5055511;28;20029;-71
2021/11/29 12:10:45;;;;;;;6.57;3.90;;;8.10;99.90;;;;;;5055576;28;20021;-72
2021/11/29 12:13:16;;;;;;;10.07;4.70;;;8.10;99.90;;;;;;5001522;28;20033;-72
2021/11/29 12:15:46;;;;;;;6.10;3.20;;;8.10;99.90;;;;;;5055753;28;20105;-71
2021/11/29 12:18:40;;;;;;;10.35;3.55;;;8.20;99.90;;;;;;5055179;28;20044;-72
2021/11/29 12:21:26;;;;;;;4.57;2.92;;;8.20;99.90;;;;;;5055498;28;20473;-71
2021/11/29 12:24:04;;;;;;;5.50;2.70;;;8.30;99.90;;;;;;5055633;28;20025;-72
2021/11/29 12:26:48;;;;;;;3.92;2.28;;;8.30;99.90;;;;;;5055277;28;20024;-71
2021/11/29 12:29:20;;;;;;;5.85;2.90;;;8.20;99.90;;;;;;5055421;28;20040;-71
2021/11/29 12:31:47;;;;;;;7.25;2.78;;;8.10;99.90;;;;;;5055137;28;20029;-72
2021/11/29 12:34:13;;;;;;;5.85;2.20;;;8.20;99.90;;;;;;5055084;28;20029;-72
2021/11/29 12:36:54;;;;;;;7.30;2.88;;;8.20;99.90;;;;;;5055040;28;20060;-71
2021/11/29 12:39:48;;;;;;;4.93;2.30;;;8.20;99.90;;;;;;5054925;28;20083;-71
2021/11/29 12:42:23;;;;;;;6.15;2.60;;;8.00;99.90;;;;;;5043326;28;20405;-72
2021/11/29 12:44:52;;;;;;;3.42;2.53;;;8.10;99.90;;;;;;5055199;28;20428;-72
2021/11/29 12:47:25;;;;;;;4.95;2.63;;;8.10;99.90;;;;;;5055095;28;20481;-71
2021/11/29 12:49:52;;;;;;;5.25;2.90;;;8.20;99.90;;;;;;5054859;28;20036;-71
2021/11/29 12:52:27;;;;;;;6.82;2.70;;;8.20;99.90;;;;;;5054763;28;20095;-71
2021/11/29 12:54:54;;;;;;;4.88;2.38;;;8.20;99.90;;;;;;5054615;28;20035;-72